Whitleys Peak, Santa Catalina Island Weather observations

Data are for 10 minute period ending at time listed.
 Day   Time   Solar   Ave.   Ave.  Ave.  Vector    Max.   Stn.    Total
  of    of     Rad.   Air    Rel.  Wind   Wind     Wind   Baro.  Precip.
Year   Day            Temp.  Hum.  Speed  Dir.     Gust   Pres.         
2014   (PST)   W/m2    F      %     mph   deg.      mph    mb.     in.  
------------------------------------------------------------------------
 265   13:00  755.0    74   72.3     5     62.0     7.8    999.0   0.00  
 265   13:10  744.0    72   77.0     5     87.4     8.4    999.0   0.00  
 265   13:20  733.0    72   76.1     5    128.5    11.3    999.0   0.00  
 265   13:30  720.0    74   72.4     4    131.9     6.6    999.0   0.00  
 265   13:40  707.0    76   68.5     5    226.4    11.3    999.0   0.00  
 265   13:50  690.0    76   68.2     4    205.6     9.6    999.0   0.00  
 265   14:00  671.0    74   73.3     4    148.5     7.8    999.0   0.00  
 265   14:10  654.0    74   74.9     4    348.3     7.8    999.0   0.00  
 265   14:20  633.0    72   78.0     4     10.2     7.2    999.0   0.00  
 265   14:30  610.0    73   76.4     3     49.6     4.8    999.0   0.00  
 265   14:40  585.0    74   74.8     3     15.2     5.4    999.0   0.00  
 265   14:50  560.0    73   77.0     4      6.0     6.6    999.0   0.00  
 265   15:00  534.0    73   77.6     4     10.7     7.2    999.0   0.00  
 265   15:10  507.0    71   80.6     4     26.5     7.8    999.0   0.00  
 265   15:20  480.0    71   80.8     4     12.1     5.4    999.0   0.00  
 265   15:30  453.0    71   80.6     3    348.8     5.4    999.0   0.00  
 265   15:40  424.0    71   80.1     3    340.4     4.8    999.0   0.00  
 265   15:50  392.0    72   79.6     3    330.1     5.4    999.0   0.00  
 265   16:00  362.0    71   79.8     5    301.5     9.0    999.0   0.00  
 265   16:10  330.0    71   78.5     6    276.0     8.4    999.0   0.00  
 265   16:20  300.0    75   65.9     9    230.7    11.9    999.0   0.00  
 265   16:30  267.0    73   69.2     9    224.2    11.9    999.0   0.00  
 265   16:40  232.0    72   71.4     9    216.7    10.8    999.0   0.00  
 265   16:50  199.0    72   73.9     9    227.0    11.9    999.0   0.00  
 265   17:00  167.0    70   77.4    11    224.3    13.1    999.0   0.00  
 265   17:10  136.0    69   79.7    10    209.4    11.3    999.0   0.00  
 265   17:20  105.0    70   76.8     7    220.0     9.6    999.0   0.00  
 265   17:30   74.0    70   78.4     7    226.1     9.6    999.0   0.00  
 265   17:40   43.0    68   82.4     9    224.2    11.3    999.0   0.00  
 265   17:50   14.0    66   85.5    10    222.4    13.1    999.0   0.00  
 265   18:00    4.0    66   83.5    10    225.4    12.5    999.0   0.00  
 265   18:10    0.0    68   67.6     6    245.4     9.0    999.0   0.00  
 265   18:20    0.0    69   67.9     5    241.8     7.8    999.0   0.00  
 265   18:30    0.0    65   83.7     9    218.2    12.5    999.0   0.00  
 265   18:40    0.0    64   90.3    12    216.0    14.9    999.0   0.00  
 265   18:50    0.0    63   91.3     9    216.1    12.5    999.0   0.00  
 265   19:00    0.0    66   76.4     4    239.6     8.4    999.0   0.00  
 265   19:10    0.0    70   54.4     3    243.4     4.8    999.0   0.00  
 265   19:20    0.0    72   46.7     4    242.4     5.4    999.0   0.00  
 265   19:30    0.0    68   63.6     6    236.3     7.2    999.0   0.00  
 265   19:40    0.0    67   71.1     8    235.9     9.6    999.0   0.00  
 265   19:50    0.0    69   57.0     8    248.4    10.2    999.0   0.00  
 265   20:00    0.0    69   58.8     8    238.4    10.2    999.0   0.00  
 265   20:10    0.0    66   70.6     7    228.9     8.4    999.0   0.00  
 265   20:20    0.0    67   64.7     6    234.1     7.2    999.0   0.00  
 265   20:30    0.0    70   51.6     4    247.2     6.0    999.0   0.00  
 265   20:40    0.0    71   44.4     3    240.1     4.8    999.0   0.00  
 265   20:50    0.0    72   40.3     4    231.4     5.4    999.0   0.00  
 265   21:00    0.0    72   39.5     2    215.5     3.6    999.0   0.00  
 265   21:10    0.0    72   39.5     2    203.1     4.2    999.0   0.00  
 265   21:20    0.0    73   38.0     4    248.6     4.2    999.0   0.00  
 265   21:30    0.0    74   37.3     2    230.9     3.6    999.0   0.00  
 265   21:40    0.0    72   40.8     6    208.0     7.8    999.0   0.00  
 265   21:50    0.0    69   46.0     7    203.4     7.8    999.0   0.00  
 265   22:00    0.0    69   46.5     8    205.1     8.4    999.0   0.00  
 265   22:10    0.0    68   51.5     7    203.9     8.4    999.0   0.00  
 265   22:20    0.0    69   47.1     6    200.8     7.8    999.0   0.00  
 265   22:30    0.0    72   39.9     4    211.5     4.8    999.0   0.00  
 265   22:40    0.0    70   43.9     2    224.4     4.8    999.0   0.00  
 265   22:50    0.0    70   43.8     1    134.2     2.4    999.0   0.00  
 265   23:00    0.0    70   43.5     1     90.5     3.0    999.0   0.00  
 265   23:10    0.0    71   40.8     4     61.9     4.8    999.0   0.00  
 265   23:20    0.0    69   47.6     4     27.5     4.8    999.0   0.00  
 265   23:30    0.0    66   73.7     4     74.1     5.4    999.0   0.00  
 265   23:40    0.0    67   67.4     4     50.4     6.0    999.0   0.00  
 265   23:50    0.0    67   70.2     5     91.6     5.4    999.0   0.00  
 266    0:00    0.0    67   65.7     5     97.9     5.4    999.0   0.00  
 266    0:10    0.0    67   68.7     5    118.8     6.0    999.0   0.00  
 266    0:20    0.0    69   53.8     4     89.5     5.4    999.0   0.00  
 266    0:30    0.0    70   48.0     3    107.2     4.2    999.0   0.00  
 266    0:40    0.0    71   46.8     3    117.1     3.6    999.0   0.00  
 266    0:50    0.0    71   45.8     2    101.9     3.0    999.0   0.00  
 266    1:00    0.0    71   44.5     2     92.9     3.6    999.0   0.00  
 266    1:10    0.0    71   43.2     2     61.0     3.6    999.0   0.00  
 266    1:20    0.0    71   41.5     3     71.7     4.2    999.0   0.00  
 266    1:30    0.0    70   44.2     4    112.3     5.4    999.0   0.00  
 266    1:40    0.0    70   44.9     5    115.8     6.0    999.0   0.00  
 266    1:50    0.0    69   47.7     5    114.8     6.0    999.0   0.00  
 266    2:00    0.0    69   45.3     5    114.5     6.0    999.0   0.00  
 266    2:10    0.0    69   44.7     6    116.2     6.6    999.0   0.00  
 266    2:20    0.0    69   44.8     5    109.4     6.0    999.0   0.00  
 266    2:30    0.0    68   48.2     6    111.4     6.6    999.0   0.00  
 266    2:40    0.0    69   46.2     5     99.6     7.2    999.0   0.00  
 266    2:50    0.0    69   47.9     6    108.8     6.6    999.0   0.00  
 266    3:00    0.0    68   49.8     5     96.8     6.0    999.0   0.00  
 266    3:10    0.0    68   51.4     5     94.4     6.0    999.0   0.00  
 266    3:20    0.0    68   53.1     4     84.4     5.4    999.0   0.00  
 266    3:30    0.0    67   57.8     4     87.2     4.8    999.0   0.00  
 266    3:40    0.0    67   60.3     5    110.3     6.0    999.0   0.00  
 266    3:50    0.0    66   61.0     4    119.5     5.4    999.0   0.00  
 266    4:00    0.0    67   56.5     4    121.8     4.8    999.0   0.00  
 266    4:10    0.0    68   51.1     3    141.1     4.2    999.0   0.00  
 266    4:20    0.0    68   49.1     3    131.9     4.2    999.0   0.00  
 266    4:30    0.0    68   51.0     3    120.9     4.2    999.0   0.00  
 266    4:40    0.0    68   52.5     4     95.3     4.2    999.0   0.00  
 266    4:50    0.0    68   52.3     3    100.1     3.6    999.0   0.00  
 266    5:00    0.0    67   54.9     2     83.9     3.6    999.0   0.00  
 266    5:10    0.0    66   63.4     3     94.8     3.6    999.0   0.00  
 266    5:20    0.0    65   70.8     3     38.7     4.2    999.0   0.00  
 266    5:30    0.0    63   86.7     2     27.8     3.0    999.0   0.00  
 266    5:40    0.0    62   91.1     2     32.6     3.6    999.0   0.00  
 266    5:50    5.0    61   93.1     3     49.8     3.6    999.0   0.00  
 266    6:00   10.0    61   94.0     2      1.6     3.6    999.0   0.00  
 266    6:10   23.0    61   94.4     1    351.1     3.6    999.0   0.00  
 266    6:20   47.0    61   94.5     0    190.9     1.8    999.0   0.00  
 266    6:30   79.0    62   91.6     2     31.4     4.2    999.0   0.00  
 266    6:40  114.0    64   91.3     4     64.8     6.6    999.0   0.00  
 266    6:50   99.0    63   92.1     4     33.9     6.0    999.0   0.00  
 266    7:00  130.0    62   93.6     2     31.6     4.2    999.0   0.00  
 266    7:10  196.0    63   92.6     1    215.6     3.0    999.0   0.00  
 266    7:20  224.0    66   75.6     1    245.9     3.0    999.0   0.00  
 266    7:30  255.0    71   53.6     1    353.8     3.0    999.0   0.00  
 266    7:40  286.0    69   75.7     3     36.2     4.2    999.0   0.00  
 266    7:50  318.0    68   81.9     5     71.0     7.8    999.0   0.00  
 266    8:00  354.0    67   83.5     5     50.9     8.4    999.0   0.00  
 266    8:10  381.0    67   84.7     5     56.0     8.4    999.0   0.00  
 266    8:20  386.0    68   82.5     6     75.9     9.6    999.0   0.00  
 266    8:30  432.0    69   81.4     5     63.7     7.8    999.0   0.00  
 266    8:40  470.0    70   79.5     6     80.9     9.0    999.0   0.00  
 266    8:50  498.0    70   80.3     5     87.4     8.4    999.0   0.00  
 266    9:00  526.0    70   79.8     6     74.4     8.4    999.0   0.00  
 266    9:10  552.0    71   77.9     6     97.5     9.0    999.0   0.00  
 266    9:20  576.0    71   77.5     6     86.9     9.0    999.0   0.00  
 266    9:30  599.0    70   78.2     7     79.7    10.2    999.0   0.00  
 266    9:40  622.0    69   80.4     7     85.9     9.6    999.0   0.00  
 266    9:50  645.0    71   78.3     6    100.3     9.0    999.0   0.00  
 266   10:00  666.0    71   75.9     5     95.3     8.4    999.0   0.00  
 266   10:10  686.0    74   68.6     4     40.7     5.4    999.0   0.00  
 266   10:20  529.0    74   68.7     4     27.6     6.0    999.0   0.00  
 266   10:30  496.0    76   64.7     5     37.7     7.8    999.0   0.00  
 266   10:40  737.0    75   70.0     5     42.6     7.8    999.0   0.00  
 266   10:50  750.0    73   73.3     5     19.3     7.8    999.0   0.00  
 266   11:00  760.0    74   58.8     5     17.4     8.4    999.0   0.00  
 266   11:10  769.0    74   54.6     5     21.5     9.0    999.0   0.00  
 266   11:20  775.0    76   58.1     5     37.2     7.2    999.0   0.00  
 266   11:30  782.0    76   53.2     6     29.4     9.0    999.0   0.00  
 266   11:40  787.0    75   58.0     5     14.3     7.8    999.0   0.00  
 266   11:50  791.0    76   63.6     5     41.4     7.8    999.0   0.00  
 266   12:00  794.0    76   67.1     5     19.0     7.8    999.0   0.00  
 266   12:10  684.0    74   71.3     4     12.2     6.0    999.0   0.00  
 266   12:20  646.0    75   69.1     4     39.4     7.8    999.0   0.00  
 266   12:30  728.0    76   69.5     5     64.1     7.2    999.0   0.00  
 266   12:40  781.0    75   70.7     4     15.8     8.4    999.0   0.00  
 266   12:50  773.0    75   70.7     5     65.5     7.8    999.0   0.00  

Return to Whitleys Peak graphs page.


Western Regional Climate Center,wrcc@dri.edu